createdAt,value
2023-01-22T00:00:27.915Z,7.33
2023-01-22T00:02:54.338Z,7.19
2023-01-22T04:08:58.400Z,3.44
2023-01-22T04:11:24.803Z,3.12
2023-01-22T04:13:51.211Z,2.99
2023-01-22T04:16:17.706Z,3.13
2023-01-22T04:18:44.121Z,3.10
2023-01-22T04:21:10.509Z,2.81
2023-01-22T04:23:36.908Z,2.94
2023-01-22T04:26:03.279Z,2.88
2023-01-22T04:28:29.641Z,3.03
2023-01-22T04:30:56.144Z,3.07
2023-01-22T04:33:22.663Z,3.15
2023-01-22T04:35:49.049Z,2.89
2023-01-22T04:38:15.439Z,3.02
2023-01-22T04:40:41.828Z,3.05
2023-01-22T04:43:08.217Z,3.05
2023-01-22T04:45:34.616Z,2.83
2023-01-22T04:48:01.016Z,2.90
2023-01-22T04:50:27.413Z,3.02
2023-01-22T04:52:53.814Z,2.72
2023-01-22T04:55:20.188Z,2.64
2023-01-22T04:57:46.593Z,2.82
2023-01-22T05:00:12.999Z,2.69
2023-01-22T05:02:39.480Z,2.86
2023-01-22T05:05:05.898Z,3.02
2023-01-22T05:07:32.275Z,2.85
2023-01-22T05:09:58.675Z,2.74
2023-01-22T05:12:25.082Z,2.69
2023-01-22T05:14:51.478Z,2.88
2023-01-22T05:17:17.865Z,2.92
2023-01-22T05:19:44.253Z,2.71
2023-01-22T05:22:10.651Z,2.72
2023-01-22T05:24:37.075Z,2.75
2023-01-22T05:27:03.493Z,2.71
2023-01-22T05:29:29.884Z,2.58
2023-01-22T05:31:56.309Z,2.63
2023-01-22T05:34:22.700Z,2.81
2023-01-22T05:36:49.082Z,2.79
2023-01-22T05:39:15.472Z,2.64
2023-01-22T05:41:41.946Z,2.68
2023-01-22T05:44:08.315Z,2.83
2023-01-22T05:46:34.725Z,2.98
2023-01-22T05:49:01.146Z,2.65
2023-01-22T05:51:27.526Z,2.61
2023-01-22T05:53:53.924Z,2.44
2023-01-22T05:56:20.310Z,2.72
2023-01-22T05:58:46.682Z,2.71
2023-01-22T06:01:13.070Z,2.58
2023-01-22T06:03:39.491Z,2.71
2023-01-22T06:06:05.883Z,2.75
2023-01-22T06:08:34.177Z,2.79
2023-01-22T06:11:00.768Z,2.63
2023-01-22T06:13:27.157Z,2.60
2023-01-22T06:15:53.614Z,2.86
2023-01-22T06:18:20.088Z,2.68
2023-01-22T06:20:46.464Z,2.83
2023-01-22T06:23:12.859Z,2.66
2023-01-22T06:25:39.474Z,2.58
2023-01-22T06:28:05.886Z,2.61
2023-01-22T06:30:32.345Z,2.69
2023-01-22T06:32:58.745Z,2.44
2023-01-22T06:35:25.158Z,2.62
2023-01-22T06:37:51.556Z,2.83
2023-01-22T06:40:18.225Z,2.73
2023-01-22T06:42:44.815Z,2.59
2023-01-22T06:45:11.200Z,2.79
2023-01-22T06:47:37.609Z,2.90
2023-01-22T06:50:04.014Z,2.66
2023-01-22T06:52:30.398Z,2.54
2023-01-22T06:54:56.784Z,2.80
2023-01-22T06:57:23.162Z,2.62
2023-01-22T06:59:49.542Z,2.80
2023-01-22T07:02:15.936Z,2.91
2023-01-22T07:04:42.317Z,3.10
2023-01-22T07:07:08.769Z,3.26
2023-01-22T07:09:35.162Z,2.93
2023-01-22T07:12:01.566Z,2.86
2023-01-22T07:14:36.408Z,2.86
2023-01-22T07:17:03.452Z,2.98
2023-01-22T07:19:29.823Z,2.74
2023-01-22T07:21:56.227Z,2.56
2023-01-22T07:24:22.609Z,2.70
2023-01-22T07:26:49.001Z,2.64
2023-01-22T07:29:15.393Z,2.59
2023-01-22T07:31:41.839Z,2.57
2023-01-22T07:34:08.290Z,2.62
2023-01-22T07:36:34.692Z,2.58
2023-01-22T07:39:01.069Z,2.62
2023-01-22T07:41:27.456Z,2.66
2023-01-22T07:43:53.868Z,2.59
2023-01-22T07:46:20.284Z,2.50
2023-01-22T07:48:46.683Z,2.44
2023-01-22T07:51:13.113Z,2.42
2023-01-22T07:53:39.545Z,2.44
2023-01-22T07:56:05.937Z,2.57
2023-01-22T07:58:32.342Z,2.30
2023-01-22T08:00:58.730Z,2.33
2023-01-22T08:03:25.120Z,2.52
2023-01-22T08:05:51.498Z,2.54
2023-01-22T08:08:17.882Z,2.62
2023-01-22T08:10:44.259Z,2.54
2023-01-22T08:13:10.634Z,2.36
2023-01-22T08:15:37.017Z,2.43
2023-01-22T08:18:03.404Z,2.55
2023-01-22T08:20:29.784Z,2.43
2023-01-22T08:22:56.207Z,2.62
2023-01-22T08:25:22.579Z,3.01
2023-01-22T08:27:48.965Z,2.77
2023-01-22T08:30:15.345Z,3.07
2023-01-22T08:32:41.721Z,2.97
2023-01-22T08:35:08.100Z,3.36
2023-01-22T08:37:34.505Z,3.41
2023-01-22T08:40:00.911Z,3.45
2023-01-22T08:42:27.285Z,3.85
2023-01-22T08:44:53.664Z,4.07
2023-01-22T08:47:20.052Z,4.19
2023-01-22T08:49:46.444Z,4.34
2023-01-22T08:52:12.822Z,4.64
2023-01-22T08:54:39.223Z,4.47
2023-01-22T08:57:05.605Z,4.46
2023-01-22T08:59:31.990Z,4.96
2023-01-22T09:01:58.394Z,4.80
2023-01-22T09:04:24.818Z,4.85
2023-01-22T09:06:51.212Z,5.19
2023-01-22T09:09:17.592Z,5.53
2023-01-22T09:11:43.962Z,6.01
2023-01-22T09:14:10.353Z,6.14
2023-01-22T09:16:36.753Z,6.61
2023-01-22T09:19:03.165Z,6.30
2023-01-22T09:21:29.542Z,6.85
2023-01-22T09:23:55.927Z,11.79
2023-01-22T09:26:22.323Z,22.62
2023-01-22T09:28:48.729Z,25.05
2023-01-22T09:31:15.182Z,24.72
2023-01-22T09:33:41.588Z,22.78
2023-01-22T09:36:07.967Z,22.14
2023-01-22T09:38:34.374Z,21.81
2023-01-22T09:41:00.769Z,20.43
2023-01-22T09:43:27.158Z,19.65
2023-01-22T09:45:53.626Z,18.95
2023-01-22T09:48:20.031Z,19.22
2023-01-22T09:50:46.598Z,18.70
2023-01-22T09:53:13.062Z,18.36
2023-01-22T09:55:39.482Z,17.97
2023-01-22T09:58:05.869Z,17.01
2023-01-22T10:00:32.245Z,16.39
2023-01-22T10:02:58.634Z,16.51
2023-01-22T10:05:25.045Z,16.41
2023-01-22T10:07:51.452Z,15.74
2023-01-22T10:10:18.186Z,15.33
2023-01-22T10:12:44.787Z,15.21
2023-01-22T10:15:11.205Z,15.15
2023-01-22T10:17:37.661Z,15.29
2023-01-22T10:20:04.086Z,14.77
2023-01-22T10:22:30.507Z,14.64
2023-01-22T10:24:56.904Z,14.95
2023-01-22T10:27:23.280Z,15.20
2023-01-22T10:29:49.676Z,15.01
2023-01-22T10:32:16.063Z,15.55
2023-01-22T10:34:42.498Z,15.53
2023-01-22T10:37:08.897Z,15.44
2023-01-22T10:39:35.299Z,16.43
2023-01-22T10:42:01.683Z,16.53
2023-01-22T10:44:28.084Z,17.20
2023-01-22T10:46:54.502Z,17.11
2023-01-22T10:49:20.908Z,17.44
2023-01-22T10:51:47.307Z,18.09
2023-01-22T10:54:13.693Z,17.62
2023-01-22T10:56:40.200Z,17.99
2023-01-22T10:59:06.942Z,17.74
2023-01-22T11:01:33.412Z,17.73
2023-01-22T11:03:59.844Z,17.53
2023-01-22T11:06:26.256Z,16.87
2023-01-22T11:08:52.688Z,16.24
2023-01-22T11:11:19.089Z,16.15
2023-01-22T11:13:45.471Z,15.96
2023-01-22T11:16:11.930Z,16.14
2023-01-22T11:18:38.361Z,16.12
2023-01-22T11:21:04.772Z,16.70
2023-01-22T11:23:31.188Z,17.20
2023-01-22T11:25:57.581Z,19.46
2023-01-22T11:28:24.064Z,21.54
2023-01-22T11:30:50.555Z,21.90
2023-01-22T11:33:17.060Z,24.28
2023-01-22T11:35:43.451Z,26.71
2023-01-22T11:38:09.935Z,28.53
2023-01-22T11:40:36.329Z,30.56
2023-01-22T11:43:02.721Z,33.03
2023-01-22T11:45:29.111Z,39.33
2023-01-22T11:47:55.489Z,40.75
2023-01-22T11:50:22.030Z,43.69
2023-01-22T11:52:48.428Z,45.42
2023-01-22T11:55:14.825Z,47.10
2023-01-22T11:57:41.288Z,49.21
2023-01-22T12:00:07.668Z,49.08
2023-01-22T12:02:34.087Z,53.15
2023-01-22T12:05:00.511Z,55.75
2023-01-22T12:07:26.897Z,58.27
2023-01-22T12:09:53.295Z,60.49
2023-01-22T12:12:19.782Z,61.11
2023-01-22T12:14:46.196Z,60.70
2023-01-22T12:17:12.589Z,62.72
2023-01-22T12:19:38.985Z,61.73
2023-01-22T12:22:05.405Z,62.34
2023-01-22T12:24:31.834Z,64.54
2023-01-22T12:26:58.253Z,65.94
2023-01-22T12:29:24.655Z,67.97
2023-01-22T12:31:51.139Z,72.70
2023-01-22T12:34:17.571Z,75.23
2023-01-22T12:36:43.990Z,75.55
2023-01-22T12:39:10.378Z,77.69
2023-01-22T12:41:36.753Z,82.27
2023-01-22T12:44:03.139Z,81.94
2023-01-22T12:46:29.616Z,82.93
2023-01-22T12:48:56.049Z,84.52
2023-01-22T12:51:22.552Z,85.63
2023-01-22T12:53:48.979Z,89.37
2023-01-22T12:56:15.349Z,90.55
2023-01-22T12:58:41.764Z,92.15
2023-01-22T13:01:08.248Z,93.59
2023-01-22T13:03:34.642Z,96.18
2023-01-22T13:06:01.025Z,97.16
2023-01-22T13:08:27.457Z,97.90
2023-01-22T13:10:53.866Z,98.07
2023-01-22T13:13:20.255Z,99.67
2023-01-22T13:15:46.663Z,100.26
2023-01-22T13:18:13.055Z,98.85
2023-01-22T13:20:39.449Z,98.46
2023-01-22T13:23:05.845Z,99.65
2023-01-22T13:25:32.248Z,98.67
2023-01-22T13:27:58.653Z,98.27
2023-01-22T13:30:25.043Z,95.98
2023-01-22T13:32:51.433Z,96.60
2023-01-22T13:35:19.768Z,94.75
2023-01-22T13:37:46.412Z,93.03
2023-01-22T13:40:12.820Z,91.79
2023-01-22T13:42:39.233Z,89.47
2023-01-22T13:45:05.618Z,90.75
2023-01-22T13:47:32.022Z,88.39
2023-01-22T13:49:58.422Z,86.40
2023-01-22T13:52:24.812Z,85.80
2023-01-22T13:54:51.197Z,83.04
2023-01-22T13:57:17.589Z,83.10
2023-01-22T13:59:43.995Z,81.21
2023-01-22T14:02:10.451Z,79.59
2023-01-22T14:04:36.901Z,79.22
2023-01-22T14:07:03.324Z,78.05
2023-01-22T14:09:29.707Z,76.91
2023-01-22T14:11:56.114Z,76.23
2023-01-22T14:14:22.569Z,73.66
2023-01-22T14:16:48.962Z,71.67
2023-01-22T14:19:15.368Z,72.07
2023-01-22T14:21:41.794Z,70.81
2023-01-22T14:24:08.178Z,68.40
2023-01-22T14:26:34.630Z,68.19
2023-01-22T14:29:01.021Z,66.94
2023-01-22T14:31:27.493Z,66.35
2023-01-22T14:33:53.914Z,65.61
2023-01-22T14:36:20.334Z,64.68
2023-01-22T14:38:46.771Z,62.78
2023-01-22T14:41:13.173Z,61.43
2023-01-22T14:43:39.567Z,60.59
2023-01-22T14:46:05.999Z,60.46
2023-01-22T14:48:32.417Z,59.79
2023-01-22T14:50:58.840Z,57.78
2023-01-22T14:53:25.238Z,56.88
2023-01-22T14:55:51.642Z,56.66
2023-01-22T14:58:18.020Z,54.15
2023-01-22T15:00:44.493Z,54.04
2023-01-22T15:03:10.968Z,49.75
2023-01-22T15:05:37.393Z,46.66
2023-01-22T15:08:03.834Z,46.34
2023-01-22T15:10:30.247Z,45.05
2023-01-22T15:12:56.649Z,45.91
2023-01-22T15:15:23.139Z,44.79
2023-01-22T15:17:49.545Z,43.07
2023-01-22T15:20:16.207Z,41.82
2023-01-22T15:22:42.733Z,42.01
2023-01-22T15:25:09.156Z,39.84
2023-01-22T15:27:35.549Z,39.47
2023-01-22T15:30:01.948Z,38.55
2023-01-22T15:32:28.356Z,38.18
2023-01-22T15:34:54.752Z,37.85
2023-01-22T15:37:21.169Z,37.35
2023-01-22T15:39:47.560Z,37.54
2023-01-22T15:42:13.946Z,36.06
2023-01-22T15:44:40.347Z,35.28
2023-01-22T15:47:06.754Z,34.40
2023-01-22T15:49:33.133Z,34.98
2023-01-22T15:51:59.550Z,34.69
2023-01-22T15:54:26.020Z,33.54
2023-01-22T15:56:52.429Z,33.61
2023-01-22T15:59:18.840Z,32.49
2023-01-22T16:01:45.260Z,32.51
2023-01-22T16:04:11.649Z,31.52
2023-01-22T16:06:38.066Z,31.75
2023-01-22T16:09:04.568Z,31.14
2023-01-22T16:11:30.975Z,30.58
2023-01-22T16:13:57.375Z,30.44
2023-01-22T16:16:23.822Z,29.51
2023-01-22T16:18:50.265Z,28.95
2023-01-22T16:21:16.668Z,29.16
2023-01-22T16:23:43.056Z,28.94
2023-01-22T16:26:09.491Z,28.15
2023-01-22T16:28:35.861Z,27.60
2023-01-22T16:31:02.351Z,27.06
2023-01-22T16:33:28.754Z,26.60
2023-01-22T16:35:55.155Z,26.50
2023-01-22T16:38:21.539Z,26.34
2023-01-22T16:40:47.944Z,25.67
2023-01-22T16:43:14.341Z,25.26
2023-01-22T16:45:40.746Z,25.24
2023-01-22T16:48:07.130Z,24.75
2023-01-22T16:50:33.514Z,23.99
2023-01-22T16:52:59.904Z,24.18
2023-01-22T16:55:26.312Z,23.77
2023-01-22T16:57:52.737Z,23.54
2023-01-22T17:00:19.435Z,23.67
2023-01-22T17:02:45.927Z,23.00
2023-01-22T17:05:12.327Z,22.33
2023-01-22T17:07:38.723Z,22.52
2023-01-22T17:10:05.205Z,21.43
2023-01-22T17:12:31.631Z,21.38
2023-01-22T17:14:58.061Z,21.34
2023-01-22T17:17:24.475Z,20.24
2023-01-22T17:19:50.882Z,20.17
2023-01-22T17:22:17.291Z,19.93
2023-01-22T17:24:43.684Z,19.31
2023-01-22T17:27:10.069Z,18.83
2023-01-22T17:29:36.482Z,18.67
2023-01-22T17:32:02.890Z,18.88
2023-01-22T17:34:29.282Z,18.08
2023-01-22T17:36:55.685Z,18.30
2023-01-22T17:39:22.067Z,18.30
2023-01-22T17:41:48.473Z,17.90
2023-01-22T17:44:14.967Z,17.37
2023-01-22T17:46:41.384Z,16.95
2023-01-22T17:49:07.913Z,17.30
2023-01-22T17:51:34.325Z,16.83
2023-01-22T17:54:00.732Z,16.39
2023-01-22T17:56:27.112Z,17.10
2023-01-22T17:58:53.493Z,16.83
2023-01-22T18:01:20.156Z,16.33
2023-01-22T18:03:46.604Z,16.26
2023-01-22T18:06:13.022Z,16.02
2023-01-22T18:08:39.446Z,15.79
2023-01-22T18:11:05.841Z,15.65
2023-01-22T18:13:32.234Z,15.73
2023-01-22T18:15:58.660Z,15.14
2023-01-22T18:18:25.083Z,14.76
2023-01-22T18:20:51.466Z,14.89
2023-01-22T18:23:17.858Z,14.32
2023-01-22T18:25:44.262Z,13.90
2023-01-22T18:28:10.693Z,14.25
2023-01-22T18:30:37.097Z,13.97
2023-01-22T18:33:03.533Z,13.53
2023-01-22T18:35:29.952Z,13.59
2023-01-22T18:37:56.341Z,12.95
2023-01-22T18:40:22.740Z,13.33
2023-01-22T18:42:49.120Z,13.03
2023-01-22T18:45:15.517Z,12.35
2023-01-22T18:47:41.919Z,12.45
2023-01-22T18:50:08.321Z,12.30
2023-01-22T18:52:34.698Z,12.22
2023-01-22T18:55:01.108Z,12.52
2023-01-22T18:57:27.496Z,12.23
2023-01-22T18:59:53.890Z,11.89
2023-01-22T19:02:20.300Z,12.33
2023-01-22T19:04:46.686Z,11.45
2023-01-22T19:07:13.078Z,11.85
2023-01-22T19:09:39.473Z,11.52
2023-01-22T19:12:05.900Z,11.44
2023-01-22T19:14:32.305Z,10.97
2023-01-22T19:16:58.695Z,10.93
2023-01-22T19:19:25.107Z,10.77
2023-01-22T19:21:51.514Z,11.11
2023-01-22T19:24:17.899Z,10.49
2023-01-22T19:26:46.248Z,10.23
2023-01-22T19:29:13.103Z,10.04
2023-01-22T19:31:39.636Z,10.24
2023-01-22T19:34:06.080Z,10.10
2023-01-22T19:36:32.487Z,9.86
2023-01-22T19:38:58.872Z,10.02
2023-01-22T19:41:25.248Z,9.89
2023-01-22T19:43:51.627Z,9.85
2023-01-22T19:46:18.058Z,9.99
2023-01-22T19:48:44.437Z,9.82
2023-01-22T19:51:10.876Z,10.23
2023-01-22T19:53:37.284Z,9.91
2023-01-22T19:56:03.690Z,9.62
2023-01-22T19:58:30.061Z,9.66
2023-01-22T20:00:56.561Z,9.57
2023-01-22T20:03:22.960Z,9.51
2023-01-22T20:05:49.389Z,9.07
2023-01-22T20:08:15.789Z,8.90
2023-01-22T20:10:42.165Z,8.96
2023-01-22T20:13:08.560Z,8.92
2023-01-22T20:15:34.951Z,8.87
2023-01-22T20:18:01.320Z,8.67
2023-01-22T20:20:27.720Z,8.74
2023-01-22T20:22:54.129Z,8.39
2023-01-22T20:25:22.152Z,8.33
2023-01-22T20:27:48.772Z,8.09
2023-01-22T20:30:15.179Z,8.29
2023-01-22T20:32:41.555Z,7.99
2023-01-22T20:35:07.959Z,7.70
2023-01-22T20:37:34.346Z,7.71
2023-01-22T20:40:00.751Z,7.63
2023-01-22T20:42:27.148Z,7.40
2023-01-22T20:44:53.544Z,7.12
2023-01-22T20:47:19.940Z,6.88
2023-01-22T20:49:46.309Z,7.02
2023-01-22T20:52:12.697Z,6.87
2023-01-22T20:54:50.107Z,7.00
2023-01-22T20:57:21.473Z,7.20
2023-01-22T20:59:47.841Z,6.94
2023-01-22T21:02:14.246Z,6.64
2023-01-22T21:04:40.695Z,6.74
2023-01-22T21:07:07.090Z,6.36
2023-01-22T21:09:33.466Z,6.45
2023-01-22T21:11:59.840Z,6.49
2023-01-22T21:14:26.223Z,6.13
2023-01-22T21:16:52.626Z,6.06
2023-01-22T21:19:20.104Z,6.52
2023-01-22T21:21:46.491Z,6.34
2023-01-22T21:24:12.926Z,6.19
2023-01-22T21:26:39.319Z,6.14
2023-01-22T21:29:05.708Z,6.17
2023-01-22T21:31:32.156Z,5.97
2023-01-22T21:33:58.573Z,5.99
2023-01-22T21:36:24.965Z,5.91
2023-01-22T21:38:51.352Z,5.76
2023-01-22T21:41:17.754Z,6.08
2023-01-22T21:43:44.152Z,5.74
2023-01-22T21:46:10.641Z,5.58
2023-01-22T21:48:37.010Z,5.77
2023-01-22T21:51:03.452Z,5.87
2023-01-22T21:53:29.873Z,5.60
2023-01-22T21:55:56.284Z,5.49
2023-01-22T21:58:22.698Z,5.37
2023-01-22T22:00:49.126Z,5.43
2023-01-22T22:03:15.544Z,5.26
2023-01-22T22:05:41.923Z,4.76
2023-01-22T22:08:08.306Z,5.03
2023-01-22T22:10:34.689Z,4.83
2023-01-22T22:13:01.081Z,4.99
2023-01-22T22:15:27.477Z,4.86
2023-01-22T22:17:53.870Z,5.10
2023-01-22T22:20:20.592Z,4.80
2023-01-22T22:22:47.097Z,4.88
2023-01-22T22:25:13.485Z,4.74
2023-01-22T22:27:39.852Z,4.75
2023-01-22T22:30:06.291Z,4.81
2023-01-22T22:32:32.683Z,4.79
2023-01-22T22:34:59.079Z,4.85
2023-01-22T22:37:25.476Z,4.46
2023-01-22T22:39:51.870Z,4.83
2023-01-22T22:42:18.238Z,4.56
2023-01-22T22:44:44.601Z,4.43
2023-01-22T22:47:11.025Z,4.42
2023-01-22T22:49:37.390Z,4.50
2023-01-22T22:52:03.772Z,4.25
2023-01-22T22:54:30.157Z,4.30
2023-01-22T22:56:56.560Z,4.51
2023-01-22T22:59:22.961Z,4.26
2023-01-22T23:01:49.356Z,4.45
2023-01-22T23:04:15.821Z,4.22
2023-01-22T23:06:42.236Z,4.25
2023-01-22T23:09:08.638Z,4.30
2023-01-22T23:11:35.037Z,4.21
2023-01-22T23:14:01.519Z,4.14
2023-01-22T23:16:28.015Z,4.18
2023-01-22T23:18:54.443Z,4.22
2023-01-22T23:21:20.813Z,3.93
2023-01-22T23:23:47.215Z,4.14
2023-01-22T23:26:13.587Z,3.73
2023-01-22T23:28:39.975Z,4.09
2023-01-22T23:31:06.525Z,4.00
2023-01-22T23:33:32.995Z,4.04
2023-01-22T23:35:59.413Z,3.79
2023-01-22T23:38:25.781Z,3.95
2023-01-22T23:40:52.149Z,3.88
2023-01-22T23:43:18.544Z,4.03
2023-01-22T23:45:44.944Z,3.75
2023-01-22T23:48:11.326Z,3.64
2023-01-22T23:50:37.743Z,3.45
2023-01-22T23:53:04.137Z,3.60
2023-01-22T23:55:30.529Z,3.73
2023-01-22T23:57:56.941Z,3.67
